createdAt,value
2018-09-08T00:02:00.395Z,97.20
2018-09-08T00:04:28.470Z,97.20
2018-09-08T00:07:01.889Z,97.20
2018-09-08T00:09:30.156Z,97.30
2018-09-08T00:11:58.285Z,97.30
2018-09-08T00:14:26.431Z,97.20
2018-09-08T00:16:59.843Z,97.20
2018-09-08T00:19:33.298Z,97.30
2018-09-08T00:22:06.703Z,97.30
2018-09-08T00:24:40.270Z,97.30
2018-09-08T00:27:07.650Z,97.40
2018-09-08T00:29:41.050Z,97.50
2018-09-08T00:32:12.232Z,97.50
2018-09-08T00:34:40.762Z,97.40
2018-09-08T00:37:09.274Z,97.50
2018-09-08T00:39:37.422Z,97.40
2018-09-08T00:42:05.538Z,97.50
2018-09-08T00:44:33.750Z,97.50
2018-09-08T00:47:01.931Z,97.50
2018-09-08T00:49:30.066Z,97.40
2018-09-08T00:51:58.161Z,97.40
2018-09-08T00:54:26.237Z,97.40
2018-09-08T00:56:54.384Z,97.30
2018-09-08T00:59:22.466Z,97.20
2018-09-08T01:01:50.518Z,97.10
2018-09-08T01:04:18.630Z,97.00
2018-09-08T01:06:46.813Z,96.90
2018-09-08T01:09:14.878Z,96.80
2018-09-08T01:11:43.024Z,96.80
2018-09-08T01:14:11.100Z,96.70
2018-09-08T01:16:39.449Z,96.70
2018-09-08T01:19:07.553Z,96.60
2018-09-08T01:21:35.850Z,96.60
2018-09-08T01:24:03.962Z,96.50
2018-09-08T01:26:32.045Z,96.50
2018-09-08T01:29:00.127Z,96.50
2018-09-08T01:31:28.262Z,96.50
2018-09-08T01:33:56.386Z,96.50
2018-09-08T01:36:24.531Z,96.50
2018-09-08T01:38:52.834Z,96.50
2018-09-08T01:41:20.955Z,96.40
2018-09-08T01:43:49.080Z,96.40
2018-09-08T01:46:17.202Z,96.40
2018-09-08T01:48:45.320Z,96.40
2018-09-08T01:51:13.482Z,96.40
2018-09-08T01:53:41.722Z,96.40
2018-09-08T01:56:09.831Z,96.40
2018-09-08T01:58:37.906Z,96.40
2018-09-08T02:01:06.431Z,96.40
2018-09-08T02:03:34.524Z,96.40
2018-09-08T02:06:02.746Z,96.30
2018-09-08T02:08:30.802Z,96.30
2018-09-08T02:10:58.892Z,96.40
2018-09-08T02:13:27.054Z,96.40
2018-09-08T02:15:55.208Z,96.40
2018-09-08T02:18:23.294Z,96.30
2018-09-08T02:20:51.489Z,96.30
2018-09-08T02:23:19.554Z,96.30
2018-09-08T02:25:47.707Z,96.30
2018-09-08T02:28:15.794Z,96.20
2018-09-08T02:30:43.878Z,96.30
2018-09-08T02:33:12.062Z,96.20
2018-09-08T02:35:40.163Z,96.20
2018-09-08T02:38:08.265Z,96.20
2018-09-08T02:40:36.413Z,96.20
2018-09-08T02:43:04.563Z,96.20
2018-09-08T02:45:32.677Z,96.30
2018-09-08T02:48:00.782Z,96.30
2018-09-08T02:50:29.195Z,96.30
2018-09-08T02:52:56.326Z,96.30
2018-09-08T02:55:23.510Z,96.30
2018-09-08T02:57:50.662Z,96.40
2018-09-08T03:00:17.910Z,96.30
2018-09-08T03:02:45.064Z,96.30
2018-09-08T03:05:12.223Z,96.30
2018-09-08T03:07:39.384Z,96.30
2018-09-08T03:10:06.555Z,96.30
2018-09-08T03:12:33.756Z,96.30
2018-09-08T03:15:00.953Z,96.30
2018-09-08T03:17:28.123Z,96.20
2018-09-08T03:19:55.298Z,96.20
2018-09-08T03:22:22.582Z,96.20
2018-09-08T03:24:49.954Z,96.20
2018-09-08T03:27:17.231Z,96.20
2018-09-08T03:29:44.378Z,96.20
2018-09-08T03:32:11.607Z,96.50
2018-09-08T03:34:38.778Z,96.20
2018-09-08T03:37:05.939Z,96.20
2018-09-08T03:39:33.110Z,96.20
2018-09-08T03:42:00.275Z,96.20
2018-09-08T03:44:27.506Z,96.20
2018-09-08T03:46:54.711Z,96.20
2018-09-08T03:49:21.918Z,96.20
2018-09-08T03:51:49.062Z,96.20
2018-09-08T03:54:16.285Z,96.20
2018-09-08T03:56:43.482Z,96.20
2018-09-08T03:59:10.654Z,96.20
2018-09-08T04:01:37.813Z,96.20
2018-09-08T04:04:06.015Z,96.10
2018-09-08T04:06:34.175Z,96.20
2018-09-08T04:09:02.386Z,96.20
2018-09-08T04:11:30.516Z,96.20
2018-09-08T04:13:58.686Z,96.30
2018-09-08T04:16:26.790Z,96.30
2018-09-08T04:18:54.898Z,96.30
2018-09-08T04:21:23.017Z,96.30
2018-09-08T04:23:51.183Z,96.20
2018-09-08T04:26:19.232Z,96.20
2018-09-08T04:28:47.326Z,96.20
2018-09-08T04:31:15.455Z,96.20
2018-09-08T04:33:43.684Z,96.20
2018-09-08T04:36:12.022Z,96.30
2018-09-08T04:38:40.114Z,96.30
2018-09-08T04:41:08.239Z,96.40
2018-09-08T04:43:36.326Z,96.50
2018-09-08T04:46:04.426Z,96.40
2018-09-08T04:48:32.527Z,96.40
2018-09-08T04:51:00.618Z,96.50
2018-09-08T04:53:28.690Z,96.50
2018-09-08T04:55:56.797Z,96.60
2018-09-08T04:58:24.934Z,96.50
2018-09-08T05:00:53.027Z,96.60
2018-09-08T05:03:21.135Z,96.60
2018-09-08T05:05:49.250Z,96.60
2018-09-08T05:08:17.359Z,96.60
2018-09-08T05:10:45.484Z,96.60
2018-09-08T05:13:13.618Z,96.70
2018-09-08T05:15:41.757Z,96.70
2018-09-08T05:18:09.872Z,96.70
2018-09-08T05:20:37.966Z,96.70
2018-09-08T05:23:06.097Z,96.60
2018-09-08T05:25:34.288Z,96.70
2018-09-08T05:28:02.464Z,96.70
2018-09-08T05:30:30.574Z,96.90
2018-09-08T05:32:58.688Z,96.60
2018-09-08T05:35:26.861Z,96.60
2018-09-08T05:37:54.966Z,96.60
2018-09-08T05:40:23.083Z,96.70
2018-09-08T05:42:51.214Z,96.60
2018-09-08T05:45:19.382Z,96.70
2018-09-08T05:47:47.500Z,96.60
2018-09-08T05:50:15.617Z,96.60
2018-09-08T05:52:43.715Z,96.60
2018-09-08T05:55:11.817Z,96.60
2018-09-08T05:57:39.934Z,96.60
2018-09-08T06:00:08.047Z,96.60
2018-09-08T06:02:36.266Z,96.60
2018-09-08T06:05:04.367Z,96.50
2018-09-08T06:07:32.488Z,96.60
2018-09-08T06:10:00.586Z,96.60
2018-09-08T06:12:28.783Z,96.60
2018-09-08T06:14:56.880Z,96.60
2018-09-08T06:17:25.008Z,96.50
2018-09-08T06:19:53.066Z,96.50
2018-09-08T06:22:21.172Z,96.50
2018-09-08T06:24:49.337Z,96.30
2018-09-08T06:27:17.418Z,97.50
2018-09-08T06:29:45.594Z,98.00
2018-09-08T06:32:14.839Z,98.20
2018-09-08T06:34:44.795Z,98.50
2018-09-08T06:37:13.583Z,99.40
2018-09-08T06:39:42.926Z,99.10
2018-09-08T06:42:11.270Z,99.40
2018-09-08T06:44:39.736Z,99.10
2018-09-08T06:47:08.230Z,99.50
2018-09-08T06:49:37.017Z,99.30
2018-09-08T06:52:05.296Z,99.00
2018-09-08T06:54:33.407Z,99.40
2018-09-08T06:57:01.943Z,99.20
2018-09-08T06:59:30.494Z,99.30
2018-09-08T07:02:00.343Z,99.20
2018-09-08T07:04:31.201Z,99.20
2018-09-08T07:06:59.735Z,99.10
2018-09-08T07:09:27.999Z,98.80
2018-09-08T07:11:56.414Z,99.00
2018-09-08T07:14:24.744Z,99.20
2018-09-08T07:16:53.077Z,99.00
2018-09-08T07:19:21.680Z,99.00
2018-09-08T07:24:28.678Z,98.70
2018-09-08T07:26:59.402Z,98.80
2018-09-08T07:29:27.552Z,98.50
2018-09-08T07:31:55.784Z,98.70
2018-09-08T07:34:24.021Z,98.70
2018-09-08T07:36:52.296Z,98.50
2018-09-08T07:39:20.583Z,98.00
2018-09-08T07:41:48.717Z,98.30
2018-09-08T07:44:16.914Z,98.70
2018-09-08T07:46:45.059Z,98.70
2018-09-08T07:49:13.148Z,98.50
2018-09-08T07:51:41.269Z,98.50
2018-09-08T07:54:09.376Z,98.50
2018-09-08T07:56:37.495Z,98.10
2018-09-08T07:59:05.886Z,98.00
2018-09-08T08:01:33.974Z,97.70
2018-09-08T08:04:02.083Z,97.70
2018-09-08T08:06:30.279Z,98.00
2018-09-08T08:08:58.362Z,97.90
2018-09-08T08:11:26.640Z,98.00
2018-09-08T08:13:54.943Z,97.90
2018-09-08T08:16:23.078Z,98.10
2018-09-08T08:18:51.169Z,98.30
2018-09-08T08:21:19.270Z,98.00
2018-09-08T08:23:47.378Z,98.10
2018-09-08T08:26:15.474Z,98.30
2018-09-08T08:28:43.586Z,98.00
2018-09-08T08:31:11.766Z,98.10
2018-09-08T08:33:39.854Z,97.90
2018-09-08T08:36:07.970Z,97.80
2018-09-08T08:38:36.098Z,97.80
2018-09-08T08:41:04.247Z,97.90
2018-09-08T08:43:32.315Z,97.50
2018-09-08T08:46:00.423Z,97.80
2018-09-08T08:48:28.503Z,97.60
2018-09-08T08:51:08.021Z,97.20
2018-09-08T08:53:47.426Z,97.60
2018-09-08T08:56:15.528Z,97.50
2018-09-08T08:58:43.625Z,97.30
2018-09-08T09:01:11.889Z,97.20
2018-09-08T09:03:40.002Z,97.70
2018-09-08T09:06:08.083Z,98.10
2018-09-08T09:08:36.516Z,97.20
2018-09-08T09:11:04.246Z,96.80
2018-09-08T09:13:32.353Z,97.20
2018-09-08T09:16:00.402Z,97.00
2018-09-08T09:18:40.106Z,97.30
2018-09-08T09:21:19.494Z,97.10
2018-09-08T09:25:01.719Z,96.90
2018-09-08T09:27:31.050Z,96.80
2018-09-08T09:29:59.553Z,96.60
2018-09-08T09:32:27.674Z,96.70
2018-09-08T09:34:55.735Z,96.40
2018-09-08T09:37:23.893Z,96.30
2018-09-08T09:39:52.621Z,96.20
2018-09-08T09:42:20.735Z,96.20
2018-09-08T09:44:48.858Z,95.90
2018-09-08T09:47:16.943Z,95.80
2018-09-08T09:49:45.092Z,95.60
2018-09-08T09:52:13.190Z,95.50
2018-09-08T09:54:41.330Z,95.50
2018-09-08T09:57:09.577Z,95.30
2018-09-08T09:59:37.686Z,95.30
2018-09-08T10:02:11.287Z,95.10
2018-09-08T10:04:39.403Z,94.90
2018-09-08T10:07:11.374Z,94.90
2018-09-08T10:09:40.976Z,95.00
2018-09-08T10:12:09.177Z,94.90
2018-09-08T10:14:37.182Z,94.90
2018-09-08T10:17:05.320Z,94.80
2018-09-08T10:19:33.426Z,94.70
2018-09-08T10:22:01.554Z,94.50
2018-09-08T10:24:29.626Z,94.30
2018-09-08T10:26:57.729Z,94.20
2018-09-08T10:29:25.924Z,94.10
2018-09-08T10:31:54.093Z,93.80
2018-09-08T10:34:22.198Z,93.80
2018-09-08T10:36:50.326Z,93.80
2018-09-08T10:39:18.508Z,94.10
2018-09-08T10:41:46.586Z,93.90
2018-09-08T10:44:14.694Z,93.50
2018-09-08T10:46:42.752Z,93.40
2018-09-08T10:49:10.818Z,93.30
2018-09-08T10:51:55.267Z,93.30
2018-09-08T10:54:23.359Z,93.10
2018-09-08T10:56:51.478Z,93.40
2018-09-08T10:59:19.554Z,93.30
2018-09-08T11:01:48.122Z,92.80
2018-09-08T11:04:16.496Z,92.60
2018-09-08T11:06:45.820Z,92.70
2018-09-08T11:09:13.899Z,92.20
2018-09-08T11:11:42.092Z,92.20
2018-09-08T11:14:10.203Z,92.00
2018-09-08T11:16:38.294Z,91.70
2018-09-08T11:19:06.362Z,91.80
2018-09-08T11:21:34.442Z,91.80
2018-09-08T11:24:02.586Z,91.70
2018-09-08T11:26:30.701Z,91.90
2018-09-08T11:28:58.767Z,91.90
2018-09-08T11:31:26.878Z,91.60
2018-09-08T11:33:55.014Z,91.60
2018-09-08T11:36:23.123Z,91.60
2018-09-08T11:38:51.263Z,91.50
2018-09-08T11:41:19.433Z,91.50
2018-09-08T11:43:47.589Z,91.70
2018-09-08T11:46:15.738Z,91.20
2018-09-08T11:48:43.876Z,91.40
2018-09-08T11:51:12.006Z,90.90
2018-09-08T11:53:40.146Z,90.60
2018-09-08T11:56:08.279Z,91.00
2018-09-08T11:58:36.409Z,90.90
2018-09-08T12:01:04.470Z,91.00
2018-09-08T12:03:32.547Z,91.20
2018-09-08T12:06:00.964Z,91.30
2018-09-08T12:08:29.204Z,91.40
2018-09-08T12:10:57.310Z,91.20
2018-09-08T12:13:25.407Z,90.80
2018-09-08T12:15:53.507Z,90.90
2018-09-08T12:18:21.590Z,90.90
2018-09-08T12:20:49.791Z,90.70
2018-09-08T12:23:17.925Z,90.70
2018-09-08T12:25:46.010Z,91.10
2018-09-08T12:28:14.191Z,90.90
2018-09-08T12:30:42.466Z,91.20
2018-09-08T12:33:10.479Z,91.10
2018-09-08T12:35:38.787Z,90.90
2018-09-08T12:38:06.887Z,91.20
2018-09-08T12:40:34.997Z,91.00
2018-09-08T12:43:03.079Z,91.00
2018-09-08T12:45:31.203Z,90.90
2018-09-08T12:47:59.334Z,91.00
2018-09-08T12:50:27.509Z,91.30
2018-09-08T12:52:55.611Z,91.40
2018-09-08T12:55:23.671Z,91.50
2018-09-08T12:57:51.757Z,91.70
2018-09-08T13:00:19.839Z,91.90
2018-09-08T13:02:48.007Z,91.90
2018-09-08T13:05:16.090Z,91.70
2018-09-08T13:07:44.452Z,91.80
2018-09-08T13:10:12.550Z,91.60
2018-09-08T13:12:40.750Z,91.70
2018-09-08T13:15:08.825Z,92.10
2018-09-08T13:17:37.692Z,92.20
2018-09-08T13:20:05.815Z,92.30
2018-09-08T13:22:33.878Z,92.30
2018-09-08T13:25:02.033Z,92.10
2018-09-08T13:27:30.171Z,92.30
2018-09-08T13:29:58.339Z,93.60
2018-09-08T13:32:26.442Z,92.60
2018-09-08T13:34:54.719Z,91.70
2018-09-08T13:37:22.886Z,92.60
2018-09-08T13:39:51.048Z,92.00
2018-09-08T13:42:19.210Z,92.10
2018-09-08T13:44:47.375Z,91.70
2018-09-08T13:47:15.541Z,92.80
2018-09-08T13:49:43.622Z,92.20
2018-09-08T13:52:11.718Z,91.90
2018-09-08T13:54:39.857Z,91.60
2018-09-08T13:57:08.015Z,91.50
2018-09-08T13:59:36.132Z,91.50
2018-09-08T14:02:04.237Z,90.90
2018-09-08T14:04:32.315Z,91.20
2018-09-08T14:07:00.394Z,91.40
2018-09-08T14:09:28.557Z,92.30
2018-09-08T14:11:56.663Z,91.20
2018-09-08T14:14:24.774Z,91.60
2018-09-08T14:16:52.920Z,92.20
2018-09-08T14:19:21.106Z,92.00
2018-09-08T14:21:49.209Z,91.90
2018-09-08T14:24:17.303Z,92.90
2018-09-08T14:26:45.383Z,92.40
2018-09-08T14:29:13.487Z,92.50
2018-09-08T14:31:41.578Z,92.10
2018-09-08T14:34:09.739Z,91.70
2018-09-08T14:36:37.881Z,92.20
2018-09-08T14:39:07.218Z,91.80
2018-09-08T14:41:35.383Z,92.60
2018-09-08T14:44:03.596Z,92.40
2018-09-08T14:46:31.755Z,92.60
2018-09-08T14:49:00.027Z,92.20
2018-09-08T14:51:28.127Z,92.50
2018-09-08T14:53:56.263Z,91.60
2018-09-08T14:56:24.436Z,91.90
2018-09-08T14:58:52.525Z,91.80
2018-09-08T15:01:20.662Z,92.10
2018-09-08T15:03:48.885Z,91.30
2018-09-08T15:06:17.037Z,92.10
2018-09-08T15:08:45.282Z,91.60
2018-09-08T15:11:13.389Z,91.70
2018-09-08T15:13:41.566Z,91.40
2018-09-08T15:16:09.770Z,91.80
2018-09-08T15:18:37.859Z,92.60
2018-09-08T15:21:06.088Z,91.80
2018-09-08T15:23:34.214Z,92.00
2018-09-08T15:26:02.287Z,92.30
2018-09-08T15:28:30.408Z,92.30
2018-09-08T15:30:59.550Z,92.10
2018-09-08T15:33:27.728Z,93.10
2018-09-08T15:35:55.870Z,93.00
2018-09-08T15:38:24.019Z,93.00
2018-09-08T15:40:52.188Z,93.90
2018-09-08T15:43:20.284Z,93.90
2018-09-08T15:45:48.408Z,93.50
2018-09-08T15:48:16.538Z,93.00
2018-09-08T15:50:44.610Z,93.50
2018-09-08T15:53:12.694Z,93.30
2018-09-08T15:55:40.819Z,92.90
2018-09-08T15:58:08.970Z,92.60
2018-09-08T16:00:37.046Z,92.60
2018-09-08T16:03:05.204Z,93.30
2018-09-08T16:05:33.347Z,92.90
2018-09-08T16:08:04.661Z,92.70
2018-09-08T16:10:34.619Z,92.80
2018-09-08T16:13:02.894Z,92.20
2018-09-08T16:15:30.971Z,93.10
2018-09-08T16:17:59.059Z,92.30
2018-09-08T16:20:27.187Z,92.30
2018-09-08T16:22:55.283Z,92.50
2018-09-08T16:25:23.819Z,93.00
2018-09-08T16:27:52.196Z,93.00
2018-09-08T16:30:20.278Z,93.00
2018-09-08T16:32:48.359Z,93.50
2018-09-08T16:35:16.490Z,93.60
2018-09-08T16:37:44.594Z,94.00
2018-09-08T16:40:12.778Z,93.80
2018-09-08T16:42:40.854Z,93.60
2018-09-08T16:45:08.943Z,93.90
2018-09-08T16:47:37.014Z,94.10
2018-09-08T16:50:05.191Z,94.00
2018-09-08T16:52:33.294Z,93.70
2018-09-08T16:55:01.311Z,94.40
2018-09-08T16:57:29.826Z,94.80
2018-09-08T16:59:57.986Z,94.90
2018-09-08T17:02:26.094Z,94.30
2018-09-08T17:04:54.397Z,94.70
2018-09-08T17:07:22.438Z,94.10
2018-09-08T17:09:50.517Z,94.20
2018-09-08T17:12:18.598Z,94.80
2018-09-08T17:14:46.865Z,94.90
2018-09-08T17:17:14.987Z,95.30
2018-09-08T17:19:43.108Z,95.10
2018-09-08T17:22:11.280Z,94.40
2018-09-08T17:24:39.371Z,93.90
2018-09-08T17:27:07.446Z,94.40
2018-09-08T17:29:35.550Z,94.20
2018-09-08T17:32:03.622Z,94.50
2018-09-08T17:34:31.730Z,94.30
2018-09-08T17:36:59.842Z,94.10
2018-09-08T17:39:27.963Z,94.70
2018-09-08T17:41:56.068Z,93.50
2018-09-08T17:44:24.158Z,94.00
2018-09-08T17:46:52.231Z,94.00
2018-09-08T17:49:20.342Z,94.00
2018-09-08T17:51:48.437Z,93.70
2018-09-08T17:54:16.586Z,94.60
2018-09-08T17:56:44.933Z,94.90
2018-09-08T17:59:13.174Z,94.50
2018-09-08T18:01:41.275Z,94.20
2018-09-08T18:04:10.712Z,94.90
2018-09-08T18:06:41.895Z,94.80
2018-09-08T18:09:19.477Z,95.10
2018-09-08T18:11:57.821Z,94.90
2018-09-08T18:14:52.724Z,94.70
2018-09-08T18:17:20.953Z,94.90
2018-09-08T18:19:49.162Z,95.30
2018-09-08T18:22:35.365Z,95.20
2018-09-08T18:25:03.509Z,95.90
2018-09-08T18:27:31.681Z,95.30
2018-09-08T18:29:59.866Z,95.10
2018-09-08T18:32:28.029Z,95.00
2018-09-08T18:34:56.827Z,95.00
2018-09-08T18:37:24.988Z,95.00
2018-09-08T18:39:53.243Z,94.90
2018-09-08T18:42:21.495Z,94.90
2018-09-08T18:44:49.806Z,95.00
2018-09-08T18:47:18.052Z,95.00
2018-09-08T18:49:46.252Z,95.00
2018-09-08T18:52:14.358Z,95.10
2018-09-08T18:54:42.554Z,95.10
2018-09-08T18:57:10.979Z,95.20
2018-09-08T18:59:39.438Z,95.20
2018-09-08T19:02:07.682Z,95.30
2018-09-08T19:04:35.931Z,95.30
2018-09-08T19:07:04.238Z,95.40
2018-09-08T19:09:32.510Z,95.50
2018-09-08T19:12:00.696Z,95.70
2018-09-08T19:14:34.285Z,95.80
2018-09-08T19:17:02.462Z,95.80
2018-09-08T19:19:30.738Z,95.90
2018-09-08T19:21:59.087Z,95.80
2018-09-08T19:24:32.705Z,95.70
2018-09-08T19:27:00.940Z,95.90
2018-09-08T19:29:34.319Z,96.00
2018-09-08T19:32:02.835Z,96.10
2018-09-08T19:34:31.116Z,96.40
2018-09-08T19:36:59.252Z,96.10
2018-09-08T19:39:27.423Z,96.20
2018-09-08T19:41:55.587Z,96.30
2018-09-08T19:44:23.739Z,96.30
2018-09-08T19:46:57.764Z,96.40
2018-09-08T19:49:25.895Z,96.30
2018-09-08T19:51:54.330Z,96.40
2018-09-08T19:54:22.551Z,96.30
2018-09-08T19:56:56.394Z,96.40
2018-09-08T19:59:24.971Z,96.30
2018-09-08T20:01:53.095Z,96.40
2018-09-08T20:04:21.863Z,96.80
2018-09-08T20:06:51.181Z,96.50
2018-09-08T20:09:21.224Z,96.50
2018-09-08T20:11:52.792Z,96.40
2018-09-08T20:14:21.888Z,96.40
2018-09-08T20:16:51.778Z,96.30
2018-09-08T20:19:22.981Z,96.40
2018-09-08T20:21:52.628Z,96.40
2018-09-08T20:24:21.440Z,96.40
2018-09-08T20:26:52.007Z,96.50
2018-09-08T20:29:22.365Z,96.40
2018-09-08T20:31:50.564Z,96.50
2018-09-08T20:34:18.759Z,96.60
2018-09-08T20:36:47.623Z,96.60
2018-09-08T20:39:15.808Z,96.90
2018-09-08T20:41:44.045Z,96.50
2018-09-08T20:44:12.278Z,96.60
2018-09-08T20:46:40.649Z,96.60
2018-09-08T20:49:09.398Z,96.60
2018-09-08T20:51:37.584Z,96.60
2018-09-08T20:54:05.703Z,96.60
2018-09-08T20:56:33.839Z,96.60
2018-09-08T20:59:02.044Z,96.60
2018-09-08T21:01:30.191Z,96.70
2018-09-08T21:03:58.336Z,96.70
2018-09-08T21:06:26.563Z,96.70
2018-09-08T21:08:55.116Z,96.70
2018-09-08T21:11:23.280Z,96.70
2018-09-08T21:13:51.683Z,96.70
2018-09-08T21:16:19.778Z,96.80
2018-09-08T21:18:48.011Z,96.70
2018-09-08T21:21:16.848Z,96.60
2018-09-08T21:23:44.975Z,96.50
2018-09-08T21:26:13.174Z,96.50
2018-09-08T21:28:41.525Z,96.60
2018-09-08T21:31:09.752Z,96.60
2018-09-08T21:33:37.902Z,96.60
2018-09-08T21:36:06.026Z,96.60
2018-09-08T21:38:34.198Z,96.70
2018-09-08T21:41:02.334Z,96.70
2018-09-08T21:43:30.479Z,96.70
2018-09-08T21:45:58.677Z,96.70
2018-09-08T21:48:26.902Z,96.70
2018-09-08T21:50:55.163Z,96.70
2018-09-08T21:53:23.294Z,96.70
2018-09-08T21:55:51.501Z,96.70
2018-09-08T21:58:19.780Z,96.70
2018-09-08T22:00:53.246Z,96.70
2018-09-08T22:03:21.811Z,96.70
2018-09-08T22:05:50.031Z,96.70
2018-09-08T22:08:18.157Z,96.80
2018-09-08T22:10:46.267Z,96.80
2018-09-08T22:13:14.500Z,96.70
2018-09-08T22:15:42.882Z,96.80
2018-09-08T22:18:11.133Z,96.80
2018-09-08T22:20:39.498Z,96.80
2018-09-08T22:23:07.750Z,96.80
2018-09-08T22:25:35.960Z,96.70
2018-09-08T22:28:04.086Z,96.70
2018-09-08T22:30:32.254Z,96.70
2018-09-08T22:33:00.588Z,96.70
2018-09-08T22:35:28.724Z,96.70
2018-09-08T22:37:56.875Z,96.80
2018-09-08T22:40:25.011Z,96.80
2018-09-08T22:42:54.218Z,96.80
2018-09-08T22:45:22.411Z,96.70
2018-09-08T22:47:50.627Z,96.80
2018-09-08T22:50:19.238Z,96.80
2018-09-08T22:52:47.940Z,96.70
2018-09-08T22:55:16.426Z,96.70
2018-09-08T22:57:44.805Z,96.80
2018-09-08T23:00:13.549Z,96.80
2018-09-08T23:02:41.924Z,96.80
2018-09-08T23:05:10.274Z,96.80
2018-09-08T23:07:39.222Z,96.80
2018-09-08T23:10:07.687Z,96.80
2018-09-08T23:12:36.531Z,96.70
2018-09-08T23:15:04.916Z,96.80
2018-09-08T23:17:33.043Z,96.90
2018-09-08T23:20:01.126Z,96.90
2018-09-08T23:22:29.522Z,96.80
2018-09-08T23:24:57.801Z,96.70
2018-09-08T23:27:26.116Z,96.60
2018-09-08T23:29:54.391Z,96.80
2018-09-08T23:32:22.588Z,96.50
2018-09-08T23:34:50.766Z,96.50
2018-09-08T23:37:19.077Z,96.50
2018-09-08T23:39:47.244Z,96.50
2018-09-08T23:42:15.544Z,96.50
2018-09-08T23:44:43.935Z,96.50
2018-09-08T23:47:12.282Z,96.40
2018-09-08T23:49:40.455Z,96.40
2018-09-08T23:52:08.767Z,96.40
2018-09-08T23:54:37.096Z,96.30
2018-09-08T23:57:05.518Z,96.30
2018-09-08T23:59:33.779Z,96.30
